Terminal Aerodrome Forecast
Issued by NWS Pittsburgh, PA

Current Version | Previous Version | Text Only | Print | Product List | Glossary Off
Versions: 1 2 3 4 5 6 7 8 9 10 11 12 13 14 15 16 17 18 19 20 21 22 23 24 25 26 27 28 29 30 31 32 33 34 35 36

000
FTUS41 KPBZ 021009 AAD
TAFPIT
TAF AMD
KPIT 021009Z 0210/0312 VRB03KT 5SM -SHRA BR OVC035
     FM021100 24005KT P6SM OVC010
     FM021500 27012KT P6SM BKN025
     FM021700 29012KT P6SM BKN035
     FM030500 35005KT P6SM BKN060=

USA.gov is the U.S. government's official web portal to all federal, state and local government web resources and services.